createdAt,value
2023-03-29T00:01:05.834Z,101970.72
2023-03-29T00:03:50.350Z,101973.34
2023-03-29T00:06:22.560Z,101966.41
2023-03-29T00:08:56.183Z,101974.09
2023-03-29T00:11:23.477Z,101968.41
2023-03-29T00:13:53.690Z,101982.81
2023-03-29T00:16:25.728Z,101982.16
2023-03-29T00:18:55.598Z,101968.09
2023-03-29T00:21:38.149Z,101989.34
2023-03-29T00:24:08.129Z,101973.09
2023-03-29T00:26:40.703Z,101974.75
2023-03-29T00:29:10.091Z,101858.47
2023-03-29T00:31:38.050Z,102000.47
2023-03-29T00:34:04.815Z,101954.81
2023-03-29T00:36:33.087Z,101911.97
2023-03-29T00:39:03.071Z,101929.34
2023-03-29T00:41:35.666Z,101887.41
2023-03-29T00:44:12.974Z,101978.00
2023-03-29T00:46:40.050Z,102002.16
2023-03-29T00:49:17.790Z,102003.38
2023-03-29T00:51:45.070Z,101981.56
2023-03-29T00:54:26.242Z,101990.56
2023-03-29T00:57:00.601Z,101975.09
2023-03-29T00:59:35.824Z,101949.00
2023-03-29T01:02:07.445Z,101940.41
2023-03-29T01:05:17.525Z,101948.94
2023-03-29T01:07:58.297Z,101908.75
2023-03-29T01:10:50.635Z,101983.34
2023-03-29T01:13:29.723Z,101977.03
2023-03-29T01:18:44.375Z,101937.50
2023-03-29T01:21:17.166Z,101929.53
2023-03-29T01:24:11.069Z,101868.47
2023-03-29T01:26:56.977Z,101953.06
2023-03-29T01:29:50.242Z,101956.44
2023-03-29T01:32:37.859Z,101938.03
2023-03-29T01:35:10.663Z,101913.81
2023-03-29T01:38:13.680Z,101928.81
2023-03-29T01:40:43.235Z,101904.13
2023-03-29T01:43:34.378Z,101939.63
2023-03-29T01:46:27.220Z,101939.63
2023-03-29T01:49:05.657Z,101936.97
2023-03-29T01:51:45.782Z,101909.09
2023-03-29T01:54:53.164Z,101931.03
2023-03-29T01:57:30.368Z,101888.84
2023-03-29T02:00:05.040Z,101927.38
2023-03-29T02:02:33.016Z,101918.44
2023-03-29T02:05:01.347Z,101900.84
2023-03-29T02:07:32.482Z,101830.69
2023-03-29T02:10:16.758Z,101903.06
2023-03-29T02:15:35.159Z,101883.28
2023-03-29T02:18:04.119Z,101890.06
2023-03-29T02:20:52.210Z,101812.38
2023-03-29T02:23:35.460Z,101845.59
2023-03-29T02:26:16.681Z,101854.91
2023-03-29T02:28:43.518Z,101905.09
2023-03-29T02:31:23.345Z,101907.75
2023-03-29T02:34:06.733Z,101894.31
2023-03-29T02:36:55.147Z,101890.66
2023-03-29T02:39:25.420Z,101924.00
2023-03-29T02:42:00.789Z,101890.88
2023-03-29T02:44:33.526Z,101910.66
2023-03-29T02:47:33.666Z,101903.03
2023-03-29T02:50:14.628Z,101882.06
2023-03-29T02:52:54.150Z,101902.31
2023-03-29T02:55:35.706Z,101903.41
2023-03-29T02:58:10.490Z,101862.66
2023-03-29T03:00:47.454Z,101861.69
2023-03-29T03:03:20.503Z,101907.53
2023-03-29T03:05:54.946Z,101894.06
2023-03-29T03:08:43.114Z,101891.84
2023-03-29T03:11:19.695Z,101902.66
2023-03-29T03:13:59.689Z,101907.13
2023-03-29T03:16:29.976Z,101916.47
2023-03-29T03:19:05.312Z,101904.19
2023-03-29T03:21:41.382Z,101926.41
2023-03-29T03:24:10.770Z,101899.97
2023-03-29T03:26:38.943Z,101888.81
2023-03-29T03:29:06.369Z,101863.47
2023-03-29T03:31:33.733Z,101805.41
2023-03-29T03:34:07.639Z,101909.28
2023-03-29T03:36:38.701Z,101914.22
2023-03-29T03:39:07.371Z,101907.13
2023-03-29T03:42:00.476Z,101817.03
2023-03-29T03:44:34.651Z,101881.03
2023-03-29T03:47:05.980Z,101846.59
2023-03-29T03:49:33.070Z,101832.03
2023-03-29T03:52:20.670Z,101903.09
2023-03-29T03:54:48.458Z,101897.31
2023-03-29T03:57:15.221Z,101901.53
2023-03-29T03:59:45.048Z,101882.47
2023-03-29T04:02:11.724Z,101880.53
2023-03-29T04:04:39.498Z,101888.38
2023-03-29T04:07:09.722Z,101883.34
2023-03-29T04:09:37.801Z,101904.81
2023-03-29T04:12:08.555Z,101892.47
2023-03-29T04:14:42.588Z,101861.38
2023-03-29T04:17:14.920Z,101828.19
2023-03-29T04:19:51.722Z,101875.88
2023-03-29T04:22:18.520Z,101888.69
2023-03-29T04:24:45.254Z,101896.50
2023-03-29T04:27:12.022Z,101874.25
2023-03-29T04:29:39.342Z,101911.38
2023-03-29T04:32:06.225Z,101894.34
2023-03-29T04:34:45.673Z,101903.75
2023-03-29T04:37:17.572Z,101847.97
2023-03-29T04:39:53.529Z,101842.09
2023-03-29T04:42:23.601Z,101881.00
2023-03-29T04:45:00.784Z,101889.53
2023-03-29T04:47:39.664Z,101685.50
2023-03-29T04:50:08.320Z,101904.16
2023-03-29T04:53:24.567Z,101795.25
2023-03-29T04:56:08.687Z,101863.44
2023-03-29T04:58:35.332Z,101757.91
2023-03-29T05:01:12.648Z,101877.84
2023-03-29T05:04:20.486Z,101830.09
2023-03-29T05:06:47.570Z,101894.25
2023-03-29T05:09:39.140Z,101917.72
2023-03-29T05:12:06.636Z,101878.88
2023-03-29T05:14:45.893Z,101860.69
2023-03-29T05:17:29.118Z,101707.13
2023-03-29T05:20:03.007Z,101803.13
2023-03-29T05:22:33.047Z,101910.78
2023-03-29T05:25:05.214Z,101923.03
2023-03-29T05:27:35.230Z,101938.88
2023-03-29T05:30:02.007Z,101942.28
2023-03-29T05:32:30.319Z,101907.03
2023-03-29T05:34:57.026Z,101937.44
2023-03-29T05:37:23.621Z,101953.72
2023-03-29T05:40:10.255Z,101957.63
2023-03-29T05:42:41.232Z,101903.50
2023-03-29T05:45:08.460Z,101967.63
2023-03-29T05:47:35.393Z,101966.78
2023-03-29T05:50:02.487Z,101968.69
2023-03-29T05:52:29.315Z,101928.53
2023-03-29T05:54:57.003Z,101937.44
2023-03-29T05:57:33.350Z,101775.41
2023-03-29T06:00:30.413Z,101906.31
2023-03-29T06:03:54.971Z,101974.84
2023-03-29T06:06:38.953Z,101971.88
2023-03-29T06:09:10.214Z,101937.75
2023-03-29T06:11:42.943Z,101974.19
2023-03-29T06:14:13.322Z,101946.56
2023-03-29T06:16:54.342Z,101968.56
2023-03-29T06:23:02.207Z,101977.16
2023-03-29T06:25:29.042Z,101970.19
2023-03-29T06:27:55.780Z,101909.75
2023-03-29T06:30:26.056Z,101977.88
2023-03-29T06:33:09.098Z,101940.00
2023-03-29T06:35:54.790Z,101981.50
2023-03-29T06:38:26.394Z,101895.16
2023-03-29T06:41:22.402Z,101934.50
2023-03-29T06:43:55.226Z,101980.63
2023-03-29T06:46:45.472Z,101953.84
2023-03-29T06:49:42.241Z,101972.91
2023-03-29T06:52:23.772Z,101942.69
2023-03-29T06:54:52.296Z,101979.22
2023-03-29T06:57:36.496Z,101982.38
2023-03-29T07:00:13.546Z,101946.00
2023-03-29T07:02:45.427Z,101960.44
2023-03-29T07:05:36.647Z,101964.69
2023-03-29T07:08:12.401Z,101964.44
2023-03-29T07:10:47.203Z,101991.88
2023-03-29T07:13:19.881Z,101950.16
2023-03-29T07:15:46.668Z,101988.97
2023-03-29T07:18:31.100Z,101881.97
2023-03-29T07:21:12.856Z,101990.28
2023-03-29T07:23:42.387Z,101851.34
2023-03-29T07:26:09.561Z,101981.09
2023-03-29T07:28:41.679Z,101845.19
2023-03-29T07:31:11.256Z,101995.44
2023-03-29T07:33:42.687Z,101997.25
2023-03-29T07:36:10.212Z,101951.91
2023-03-29T07:38:41.826Z,101906.78
2023-03-29T07:41:08.758Z,101890.06
2023-03-29T07:46:23.199Z,101997.72
2023-03-29T07:51:35.997Z,101885.69
2023-03-29T07:54:02.822Z,101984.13
2023-03-29T07:56:35.355Z,101999.13
2023-03-29T07:59:09.880Z,101858.31
2023-03-29T08:01:44.741Z,101951.63
2023-03-29T08:04:11.538Z,101990.75
2023-03-29T08:06:40.869Z,102004.94
2023-03-29T08:09:14.573Z,101986.53
2023-03-29T08:11:44.580Z,101919.88
2023-03-29T08:14:22.293Z,101997.03
2023-03-29T08:16:55.251Z,101999.06
2023-03-29T08:19:50.992Z,102012.91
2023-03-29T08:22:18.929Z,101962.97
2023-03-29T08:24:47.247Z,101974.41
2023-03-29T08:27:17.024Z,102008.19
2023-03-29T08:29:46.365Z,102003.84
2023-03-29T08:32:15.248Z,102026.78
2023-03-29T08:34:47.499Z,102003.00
2023-03-29T08:37:17.414Z,102012.16
2023-03-29T08:39:44.234Z,101990.47
2023-03-29T08:42:47.447Z,101983.41
2023-03-29T08:48:36.806Z,102023.72
2023-03-29T08:51:10.440Z,102006.25
2023-03-29T08:53:50.246Z,101992.41
2023-03-29T08:56:44.395Z,102006.88
2023-03-29T08:59:44.673Z,101955.19
2023-03-29T09:02:26.488Z,101990.19
2023-03-29T09:05:03.522Z,101932.59
2023-03-29T09:07:42.773Z,101785.56
2023-03-29T09:10:18.461Z,101960.00
2023-03-29T09:13:11.899Z,101903.44
2023-03-29T09:16:12.524Z,101977.66
2023-03-29T09:19:05.207Z,101980.50
2023-03-29T09:21:57.892Z,101985.59
2023-03-29T09:24:24.675Z,101987.31
2023-03-29T09:27:41.503Z,101985.78
2023-03-29T09:30:28.698Z,101988.72
2023-03-29T09:33:21.766Z,101993.13
2023-03-29T09:36:05.742Z,101986.34
2023-03-29T09:38:48.057Z,101983.56
2023-03-29T09:41:54.522Z,101989.25
2023-03-29T09:44:31.377Z,101974.44
2023-03-29T09:47:21.897Z,101977.53
2023-03-29T09:49:57.685Z,101973.44
2023-03-29T09:52:28.196Z,101918.28
2023-03-29T09:55:03.935Z,101977.38
2023-03-29T09:57:39.675Z,101942.78
2023-03-29T10:00:14.371Z,101980.75
2023-03-29T10:02:41.382Z,101907.84
2023-03-29T10:05:11.572Z,101959.88
2023-03-29T10:07:49.066Z,101861.19
2023-03-29T10:10:23.542Z,101973.69
2023-03-29T10:13:04.071Z,101793.84
2023-03-29T10:15:59.179Z,101946.06
2023-03-29T10:18:27.797Z,101913.75
2023-03-29T10:21:06.028Z,101957.25
2023-03-29T10:23:39.289Z,101961.09
2023-03-29T10:26:25.186Z,101942.19
2023-03-29T10:28:57.376Z,101931.44
2023-03-29T10:31:25.371Z,101961.00
2023-03-29T10:33:57.394Z,101765.16
2023-03-29T10:36:27.037Z,101968.69
2023-03-29T10:38:58.336Z,101933.03
2023-03-29T10:42:04.182Z,101955.13
2023-03-29T10:44:40.057Z,101901.41
2023-03-29T10:47:20.800Z,101877.63
2023-03-29T10:50:04.068Z,101943.66
2023-03-29T10:52:30.759Z,101941.44
2023-03-29T10:58:48.737Z,101942.03
2023-03-29T11:01:28.895Z,101943.38
2023-03-29T11:03:59.051Z,101923.22
2023-03-29T11:07:12.252Z,101931.81
2023-03-29T11:09:53.242Z,101945.19
2023-03-29T11:12:54.067Z,101848.94
2023-03-29T11:15:59.408Z,101939.31
2023-03-29T11:18:54.924Z,101942.97
2023-03-29T11:21:48.549Z,101875.53
2023-03-29T11:24:18.888Z,101932.09
2023-03-29T11:27:36.696Z,101845.31
2023-03-29T11:30:45.044Z,101835.59
2023-03-29T11:33:37.730Z,101913.34
2023-03-29T11:36:16.821Z,101925.97
2023-03-29T11:39:10.402Z,101912.00
2023-03-29T11:41:43.502Z,101871.69
2023-03-29T11:44:31.873Z,101814.66
2023-03-29T11:47:44.746Z,101870.56
2023-03-29T11:51:11.430Z,101896.13
2023-03-29T11:54:10.944Z,101888.47
2023-03-29T11:56:46.943Z,101847.94
2023-03-29T12:02:39.285Z,101886.91
2023-03-29T12:05:24.126Z,101814.47
2023-03-29T12:08:16.828Z,101872.69
2023-03-29T12:10:52.722Z,101758.66
2023-03-29T12:13:47.460Z,101639.00
2023-03-29T12:16:23.275Z,101838.56
2023-03-29T12:18:57.310Z,101867.63
2023-03-29T12:21:29.850Z,101880.13
2023-03-29T12:23:57.568Z,101858.94
2023-03-29T12:26:40.631Z,101883.84
2023-03-29T12:29:43.546Z,101844.28
2023-03-29T12:32:23.339Z,101814.09
2023-03-29T12:35:21.062Z,101866.53
2023-03-29T12:38:25.509Z,101873.44
2023-03-29T12:41:08.100Z,101851.53
2023-03-29T12:43:40.165Z,101856.91
2023-03-29T12:46:26.749Z,101844.25
2023-03-29T12:48:57.585Z,101839.66
2023-03-29T12:51:33.130Z,101770.88
2023-03-29T12:54:28.065Z,101843.72
2023-03-29T12:57:04.728Z,101811.19
2023-03-29T12:59:34.157Z,101838.00
2023-03-29T13:02:37.830Z,101840.81
2023-03-29T13:05:05.711Z,101829.22
2023-03-29T13:07:46.143Z,101834.53
2023-03-29T13:11:01.634Z,101769.75
2023-03-29T13:13:48.586Z,101825.44
2023-03-29T13:16:18.255Z,101795.97
2023-03-29T13:19:00.389Z,101794.69
2023-03-29T13:21:51.066Z,101808.44
2023-03-29T13:24:55.554Z,101824.31
2023-03-29T13:27:26.378Z,101820.84
2023-03-29T13:30:11.742Z,101811.22
2023-03-29T13:33:09.446Z,101812.38
2023-03-29T13:35:54.816Z,101795.66
2023-03-29T13:38:35.999Z,101737.34
2023-03-29T13:41:05.367Z,101603.38
2023-03-29T13:43:52.679Z,101771.22
2023-03-29T13:46:25.800Z,101772.25
2023-03-29T13:49:31.765Z,101734.63
2023-03-29T13:52:21.713Z,101791.53
2023-03-29T13:55:14.185Z,101791.28
2023-03-29T13:58:02.416Z,101727.75
2023-03-29T14:00:53.945Z,101729.16
2023-03-29T14:03:36.556Z,101776.44
2023-03-29T14:06:06.453Z,101729.47
2023-03-29T14:08:42.360Z,101780.69
2023-03-29T14:11:24.326Z,101700.84
2023-03-29T14:14:02.529Z,101753.34
2023-03-29T14:16:36.104Z,101777.28
2023-03-29T14:19:21.604Z,101714.19
2023-03-29T14:21:50.497Z,101763.25
2023-03-29T14:24:21.589Z,101722.00
2023-03-29T14:26:48.440Z,101736.34
2023-03-29T14:29:15.880Z,101712.41
2023-03-29T14:31:46.228Z,101729.59
2023-03-29T14:34:37.784Z,101703.97
2023-03-29T14:37:05.948Z,101720.34
2023-03-29T14:39:35.246Z,101746.91
2023-03-29T14:42:34.888Z,101658.56
2023-03-29T14:45:06.102Z,101711.16
2023-03-29T14:47:37.071Z,101708.56
2023-03-29T14:50:05.029Z,101656.06
2023-03-29T14:52:35.104Z,101718.63
2023-03-29T14:55:05.413Z,101708.91
2023-03-29T14:57:49.441Z,101728.16
2023-03-29T15:00:47.727Z,101705.34
2023-03-29T15:03:27.639Z,101733.94
2023-03-29T15:05:59.086Z,101693.75
2023-03-29T15:08:37.977Z,101699.84
2023-03-29T15:11:17.788Z,101649.91
2023-03-29T15:13:46.813Z,101716.63
2023-03-29T15:16:22.361Z,101725.38
2023-03-29T15:19:04.049Z,101723.53
2023-03-29T15:21:36.495Z,101717.56
2023-03-29T15:24:04.743Z,101689.94
2023-03-29T15:26:45.668Z,101716.19
2023-03-29T15:29:23.838Z,101670.34
2023-03-29T15:31:59.156Z,101673.09
2023-03-29T15:34:30.731Z,101713.91
2023-03-29T15:36:58.089Z,101730.09
2023-03-29T15:39:27.812Z,101738.59
2023-03-29T15:41:57.094Z,101729.03
2023-03-29T15:44:33.642Z,101735.19
2023-03-29T15:47:14.034Z,101737.81
2023-03-29T15:49:40.708Z,101715.56
2023-03-29T15:52:07.501Z,101732.97
2023-03-29T15:54:45.627Z,101736.38
2023-03-29T15:57:16.309Z,101723.50
2023-03-29T15:59:43.893Z,101729.03
2023-03-29T16:02:18.934Z,101714.84
2023-03-29T16:04:46.560Z,101741.66
2023-03-29T16:07:22.368Z,101714.75
2023-03-29T16:09:56.657Z,101720.81
2023-03-29T16:12:23.410Z,101696.81
2023-03-29T16:14:58.134Z,101739.25
2023-03-29T16:17:34.803Z,101668.16
2023-03-29T16:20:11.638Z,101739.72
2023-03-29T16:22:38.318Z,101751.50
2023-03-29T16:25:16.313Z,101744.75
2023-03-29T16:27:47.062Z,101755.81
2023-03-29T16:30:14.121Z,101727.78
2023-03-29T16:32:41.678Z,101739.94
2023-03-29T16:35:32.127Z,101730.66
2023-03-29T16:38:00.977Z,101722.84
2023-03-29T16:40:28.078Z,101736.31
2023-03-29T16:42:54.887Z,101736.03
2023-03-29T16:45:21.944Z,101707.50
2023-03-29T16:47:48.839Z,101730.28
2023-03-29T16:50:26.340Z,101696.41
2023-03-29T16:52:53.129Z,101730.13
2023-03-29T16:55:22.000Z,101728.06
2023-03-29T16:57:54.005Z,101730.66
2023-03-29T17:03:02.189Z,101726.78
2023-03-29T17:05:38.052Z,101604.22
2023-03-29T17:08:04.807Z,101568.97
2023-03-29T17:11:14.704Z,101744.19
2023-03-29T17:16:53.681Z,101731.91
2023-03-29T17:19:22.906Z,101661.50
2023-03-29T17:21:52.333Z,101741.56
2023-03-29T17:24:19.002Z,101736.66
2023-03-29T17:26:46.061Z,101718.16
2023-03-29T17:29:12.840Z,101745.91
2023-03-29T17:31:47.000Z,101738.78
2023-03-29T17:34:15.737Z,101582.41
2023-03-29T17:36:42.469Z,101745.13
2023-03-29T17:39:18.035Z,101721.63
2023-03-29T17:41:46.110Z,101739.06
2023-03-29T17:44:12.812Z,101732.00
2023-03-29T17:46:39.711Z,101741.75
2023-03-29T17:49:06.539Z,101756.56
2023-03-29T17:51:37.244Z,101752.78
2023-03-29T17:54:06.878Z,101735.25
2023-03-29T17:56:34.178Z,101720.53
2023-03-29T17:59:01.223Z,101767.28
2023-03-29T18:01:32.168Z,101704.09
2023-03-29T18:03:59.173Z,101749.03
2023-03-29T18:06:28.710Z,101649.97
2023-03-29T18:09:01.837Z,101778.94
2023-03-29T18:11:29.493Z,101558.88
2023-03-29T18:13:59.563Z,101780.34
2023-03-29T18:16:30.117Z,101735.56
2023-03-29T18:19:00.724Z,101678.47
2023-03-29T18:21:37.524Z,101640.91
2023-03-29T18:24:11.002Z,101567.19
2023-03-29T18:26:41.066Z,101587.88
2023-03-29T18:29:59.049Z,101781.94
2023-03-29T18:32:36.142Z,101784.34
2023-03-29T18:35:11.577Z,101571.31
2023-03-29T18:37:47.091Z,101706.28
2023-03-29T18:40:15.793Z,101726.44
2023-03-29T18:42:46.080Z,101796.56
2023-03-29T18:45:16.135Z,101808.28
2023-03-29T18:47:42.776Z,101765.78
2023-03-29T18:50:10.503Z,101799.28
2023-03-29T18:52:37.819Z,101803.25
2023-03-29T18:55:10.823Z,101779.16
2023-03-29T18:57:37.618Z,101812.97
2023-03-29T19:00:10.866Z,101832.44
2023-03-29T19:02:44.171Z,101768.19
2023-03-29T19:05:11.403Z,101799.72
2023-03-29T19:07:49.508Z,101818.22
2023-03-29T19:10:24.119Z,101802.69
2023-03-29T19:12:51.684Z,101809.47
2023-03-29T19:15:28.969Z,101835.09
2023-03-29T19:17:57.094Z,101841.84
2023-03-29T19:20:27.282Z,101706.50
2023-03-29T19:23:14.869Z,101802.56
2023-03-29T19:25:58.186Z,101834.41
2023-03-29T19:28:28.603Z,101690.13
2023-03-29T19:30:57.898Z,101810.44
2023-03-29T19:33:24.647Z,101790.75
2023-03-29T19:35:52.634Z,101819.75
2023-03-29T19:38:34.836Z,101798.34
2023-03-29T19:41:19.404Z,101810.75
2023-03-29T19:44:11.199Z,101848.50
2023-03-29T19:46:50.421Z,101787.75
2023-03-29T19:49:17.384Z,101828.66
2023-03-29T19:51:45.197Z,101816.38
2023-03-29T19:57:10.703Z,101844.41
2023-03-29T19:59:43.117Z,101808.19
2023-03-29T20:02:25.496Z,101843.28
2023-03-29T20:04:54.077Z,101843.66
2023-03-29T20:07:21.138Z,101807.31
2023-03-29T20:09:49.595Z,101852.63
2023-03-29T20:12:32.980Z,101804.50
2023-03-29T20:15:00.275Z,101757.44
2023-03-29T20:17:29.604Z,101789.28
2023-03-29T20:20:11.094Z,101727.69
2023-03-29T20:22:48.070Z,101828.59
2023-03-29T20:25:21.085Z,101820.56
2023-03-29T20:27:49.685Z,101819.91
2023-03-29T20:30:22.581Z,101843.16
2023-03-29T20:32:52.324Z,101845.97
2023-03-29T20:35:19.074Z,101836.63
2023-03-29T20:37:48.768Z,101854.78
2023-03-29T20:40:16.822Z,101775.59
2023-03-29T20:42:46.404Z,101862.41
2023-03-29T20:45:20.394Z,101849.66
2023-03-29T20:48:06.836Z,101819.34
2023-03-29T20:50:42.142Z,101842.56
2023-03-29T20:53:08.841Z,101848.09
2023-03-29T20:55:45.183Z,101761.66
2023-03-29T20:58:12.101Z,101857.69
2023-03-29T21:00:42.169Z,101868.06
2023-03-29T21:03:12.792Z,101864.66
2023-03-29T21:08:29.054Z,101843.66
2023-03-29T21:11:17.351Z,101865.69
2023-03-29T21:13:44.224Z,101723.53
2023-03-29T21:16:11.699Z,101670.53
2023-03-29T21:18:47.873Z,101814.34
2023-03-29T21:21:16.949Z,101813.06
2023-03-29T21:23:48.399Z,101884.81
2023-03-29T21:26:27.353Z,101863.38
2023-03-29T21:28:57.893Z,101757.09
2023-03-29T21:31:47.339Z,101713.13
2023-03-29T21:34:22.704Z,101894.75
2023-03-29T21:36:50.184Z,101794.88
2023-03-29T21:39:19.804Z,101812.16
2023-03-29T21:41:46.477Z,101848.00
2023-03-29T21:44:18.572Z,101856.84
2023-03-29T21:46:48.639Z,101833.13
2023-03-29T21:49:16.090Z,101904.34
2023-03-29T21:51:42.714Z,101903.94
2023-03-29T21:54:12.044Z,101897.78
2023-03-29T21:56:39.686Z,101807.38
2023-03-29T21:59:09.587Z,101823.47
2023-03-29T22:01:48.234Z,101662.56
2023-03-29T22:04:25.811Z,101890.16
2023-03-29T22:07:15.504Z,101884.69
2023-03-29T22:09:55.212Z,101814.06
2023-03-29T22:12:34.858Z,101874.47
2023-03-29T22:15:08.822Z,101878.69
2023-03-29T22:17:37.619Z,101886.50
2023-03-29T22:20:29.525Z,101852.81
2023-03-29T22:25:40.923Z,101896.84
2023-03-29T22:28:39.136Z,101881.75
2023-03-29T22:31:14.767Z,101881.34
2023-03-29T22:33:48.815Z,101677.88
2023-03-29T22:36:33.567Z,101887.38
2023-03-29T22:39:03.863Z,101854.06
2023-03-29T22:41:30.694Z,101881.41
2023-03-29T22:44:26.257Z,101892.13
2023-03-29T22:46:55.811Z,101900.56
2023-03-29T22:49:27.919Z,101899.03
2023-03-29T22:51:56.626Z,101896.75
2023-03-29T22:54:32.886Z,101857.34
2023-03-29T22:57:05.808Z,101903.41
2023-03-29T22:59:32.523Z,101903.84
2023-03-29T23:02:01.587Z,101906.78
2023-03-29T23:04:39.519Z,101852.31
2023-03-29T23:07:06.691Z,101876.75
2023-03-29T23:09:33.696Z,101863.88
2023-03-29T23:12:05.581Z,101881.41
2023-03-29T23:14:34.040Z,101898.31
2023-03-29T23:17:05.342Z,101897.38
2023-03-29T23:19:35.011Z,101899.00
2023-03-29T23:22:04.163Z,101847.28
2023-03-29T23:24:30.924Z,101863.63
2023-03-29T23:27:07.848Z,101893.13
2023-03-29T23:29:42.198Z,101844.75
2023-03-29T23:32:11.609Z,101879.22
2023-03-29T23:35:00.725Z,101830.09
2023-03-29T23:37:35.171Z,101851.81
2023-03-29T23:40:44.373Z,101881.72
2023-03-29T23:43:11.480Z,101872.94
2023-03-29T23:45:45.493Z,101813.44
2023-03-29T23:48:14.721Z,101799.38
2023-03-29T23:50:46.462Z,101882.63
2023-03-29T23:53:16.007Z,101845.59
2023-03-29T23:55:43.659Z,101844.75
2023-03-29T23:58:16.705Z,101878.41
